sensor_id;sensor_type;location;lat;lon;timestamp;temperature;humidity
21214;DHT22;10764;50.850;2.904;2023-10-19T00:01:16;21.50;64.10
21214;DHT22;10764;50.850;2.904;2023-10-19T00:03:44;21.40;63.80
21214;DHT22;10764;50.850;2.904;2023-10-19T00:06:11;21.90;64.30
21214;DHT22;10764;50.850;2.904;2023-10-19T00:08:38;21.80;64.60
21214;DHT22;10764;50.850;2.904;2023-10-19T00:11:09;21.30;63.40
21214;DHT22;10764;50.850;2.904;2023-10-19T00:13:37;21.60;64.20
21214;DHT22;10764;50.850;2.904;2023-10-19T00:16:06;21.70;64.10
21214;DHT22;10764;50.850;2.904;2023-10-19T00:18:49;21.80;64.30
21214;DHT22;10764;50.850;2.904;2023-10-19T00:21:16;21.60;64.00
21214;DHT22;10764;50.850;2.904;2023-10-19T00:23:43;22.10;64.30
21214;DHT22;10764;50.850;2.904;2023-10-19T00:26:10;22.10;63.80
21214;DHT22;10764;50.850;2.904;2023-10-19T00:28:46;21.50;64.30
21214;DHT22;10764;50.850;2.904;2023-10-19T00:31:16;21.90;64.30
21214;DHT22;10764;50.850;2.904;2023-10-19T00:33:47;22.00;64.40
21214;DHT22;10764;50.850;2.904;2023-10-19T00:36:13;22.00;64.00
21214;DHT22;10764;50.850;2.904;2023-10-19T00:38:41;22.10;64.30
21214;DHT22;10764;50.850;2.904;2023-10-19T00:41:26;21.90;64.80
21214;DHT22;10764;50.850;2.904;2023-10-19T00:43:58;21.30;64.00
21214;DHT22;10764;50.850;2.904;2023-10-19T00:46:39;21.70;64.30
21214;DHT22;10764;50.850;2.904;2023-10-19T00:49:12;21.80;63.80
21214;DHT22;10764;50.850;2.904;2023-10-19T00:51:53;21.60;64.00
21214;DHT22;10764;50.850;2.904;2023-10-19T00:54:47;21.70;62.00
21214;DHT22;10764;50.850;2.904;2023-10-19T00:57:19;21.60;62.90
21214;DHT22;10764;50.850;2.904;2023-10-19T01:00:03;21.90;64.10
21214;DHT22;10764;50.850;2.904;2023-10-19T01:02:41;21.70;62.60
21214;DHT22;10764;50.850;2.904;2023-10-19T01:05:13;21.50;62.20
21214;DHT22;10764;50.850;2.904;2023-10-19T01:07:40;21.80;64.10
21214;DHT22;10764;50.850;2.904;2023-10-19T01:10:09;21.80;64.20
21214;DHT22;10764;50.850;2.904;2023-10-19T01:12:38;21.60;63.70
21214;DHT22;10764;50.850;2.904;2023-10-19T01:15:15;21.80;63.60
21214;DHT22;10764;50.850;2.904;2023-10-19T01:17:56;21.40;64.50
21214;DHT22;10764;50.850;2.904;2023-10-19T01:20:31;21.80;64.30
21214;DHT22;10764;50.850;2.904;2023-10-19T01:23:01;21.50;63.80
21214;DHT22;10764;50.850;2.904;2023-10-19T01:28:30;22.00;64.30
21214;DHT22;10764;50.850;2.904;2023-10-19T01:31:20;22.00;64.00
21214;DHT22;10764;50.850;2.904;2023-10-19T01:34:00;22.00;64.30
21214;DHT22;10764;50.850;2.904;2023-10-19T01:36:34;21.70;63.40
21214;DHT22;10764;50.850;2.904;2023-10-19T01:39:10;21.80;62.20
21214;DHT22;10764;50.850;2.904;2023-10-19T01:41:38;21.70;64.00
21214;DHT22;10764;50.850;2.904;2023-10-19T01:44:07;21.80;64.00
21214;DHT22;10764;50.850;2.904;2023-10-19T01:46:35;21.90;64.20
21214;DHT22;10764;50.850;2.904;2023-10-19T01:49:04;22.00;64.20
21214;DHT22;10764;50.850;2.904;2023-10-19T01:51:32;21.70;64.20
21214;DHT22;10764;50.850;2.904;2023-10-19T01:54:00;21.50;63.70
21214;DHT22;10764;50.850;2.904;2023-10-19T01:56:29;21.60;62.60
21214;DHT22;10764;50.850;2.904;2023-10-19T01:58:56;21.30;63.50
21214;DHT22;10764;50.850;2.904;2023-10-19T02:01:27;21.70;62.10
21214;DHT22;10764;50.850;2.904;2023-10-19T02:03:57;21.90;64.00
21214;DHT22;10764;50.850;2.904;2023-10-19T02:06:34;21.90;64.10
21214;DHT22;10764;50.850;2.904;2023-10-19T02:09:08;21.50;63.90
21214;DHT22;10764;50.850;2.904;2023-10-19T02:12:01;21.60;63.50
21214;DHT22;10764;50.850;2.904;2023-10-19T02:14:29;21.70;63.60
21214;DHT22;10764;50.850;2.904;2023-10-19T02:16:59;21.70;63.60
21214;DHT22;10764;50.850;2.904;2023-10-19T02:19:28;22.00;63.80
21214;DHT22;10764;50.850;2.904;2023-10-19T02:22:00;21.70;63.70
21214;DHT22;10764;50.850;2.904;2023-10-19T02:24:30;21.90;64.10
21214;DHT22;10764;50.850;2.904;2023-10-19T02:26:59;21.70;63.60
21214;DHT22;10764;50.850;2.904;2023-10-19T02:29:28;21.90;63.70
21214;DHT22;10764;50.850;2.904;2023-10-19T02:31:55;21.90;63.70
21214;DHT22;10764;50.850;2.904;2023-10-19T02:34:24;21.80;63.50
21214;DHT22;10764;50.850;2.904;2023-10-19T02:36:51;21.50;63.10
21214;DHT22;10764;50.850;2.904;2023-10-19T02:39:18;21.80;63.60
21214;DHT22;10764;50.850;2.904;2023-10-19T02:41:47;21.80;63.60
21214;DHT22;10764;50.850;2.904;2023-10-19T02:44:20;21.70;63.70
21214;DHT22;10764;50.850;2.904;2023-10-19T02:46:54;21.90;62.70
21214;DHT22;10764;50.850;2.904;2023-10-19T02:49:32;21.60;63.60
21214;DHT22;10764;50.850;2.904;2023-10-19T02:52:05;21.60;64.00
21214;DHT22;10764;50.850;2.904;2023-10-19T02:54:32;21.70;63.80
21214;DHT22;10764;50.850;2.904;2023-10-19T02:57:02;22.10;62.10
21214;DHT22;10764;50.850;2.904;2023-10-19T02:59:34;21.70;64.10
21214;DHT22;10764;50.850;2.904;2023-10-19T03:02:01;21.40;63.30
21214;DHT22;10764;50.850;2.904;2023-10-19T03:04:44;21.60;64.00
21214;DHT22;10764;50.850;2.904;2023-10-19T03:07:12;21.60;63.50
21214;DHT22;10764;50.850;2.904;2023-10-19T03:09:40;21.90;63.60
21214;DHT22;10764;50.850;2.904;2023-10-19T03:12:15;21.50;63.40
21214;DHT22;10764;50.850;2.904;2023-10-19T03:14:43;21.20;63.50
21214;DHT22;10764;50.850;2.904;2023-10-19T03:17:13;21.80;63.70
21214;DHT22;10764;50.850;2.904;2023-10-19T03:19:40;21.80;63.70
21214;DHT22;10764;50.850;2.904;2023-10-19T03:22:07;22.00;64.80
21214;DHT22;10764;50.850;2.904;2023-10-19T03:24:35;21.80;63.90
21214;DHT22;10764;50.850;2.904;2023-10-19T03:27:04;21.80;63.70
21214;DHT22;10764;50.850;2.904;2023-10-19T03:29:45;21.70;63.90
21214;DHT22;10764;50.850;2.904;2023-10-19T03:32:23;21.80;64.70
21214;DHT22;10764;50.850;2.904;2023-10-19T03:34:57;21.80;64.10
21214;DHT22;10764;50.850;2.904;2023-10-19T03:37:24;21.60;64.10
21214;DHT22;10764;50.850;2.904;2023-10-19T03:39:53;21.70;64.00
21214;DHT22;10764;50.850;2.904;2023-10-19T03:42:24;21.70;63.60
21214;DHT22;10764;50.850;2.904;2023-10-19T03:44:52;21.30;63.80
21214;DHT22;10764;50.850;2.904;2023-10-19T03:47:24;22.00;62.90
21214;DHT22;10764;50.850;2.904;2023-10-19T03:50:05;21.50;62.50
21214;DHT22;10764;50.850;2.904;2023-10-19T03:52:36;21.90;63.40
21214;DHT22;10764;50.850;2.904;2023-10-19T03:55:05;21.80;64.20
21214;DHT22;10764;50.850;2.904;2023-10-19T03:57:38;21.80;63.80
21214;DHT22;10764;50.850;2.904;2023-10-19T04:00:14;21.80;63.70
21214;DHT22;10764;50.850;2.904;2023-10-19T04:02:45;21.60;63.30
21214;DHT22;10764;50.850;2.904;2023-10-19T04:05:13;21.50;63.80
21214;DHT22;10764;50.850;2.904;2023-10-19T04:07:47;22.10;63.10
21214;DHT22;10764;50.850;2.904;2023-10-19T04:10:17;21.90;64.00
21214;DHT22;10764;50.850;2.904;2023-10-19T04:12:58;21.90;62.80
21214;DHT22;10764;50.850;2.904;2023-10-19T04:15:28;21.70;64.10
21214;DHT22;10764;50.850;2.904;2023-10-19T04:18:03;21.60;64.00
21214;DHT22;10764;50.850;2.904;2023-10-19T04:20:35;21.60;63.80
21214;DHT22;10764;50.850;2.904;2023-10-19T04:23:15;21.50;65.10
21214;DHT22;10764;50.850;2.904;2023-10-19T04:25:43;21.80;64.30
21214;DHT22;10764;50.850;2.904;2023-10-19T04:28:13;21.80;64.40
21214;DHT22;10764;50.850;2.904;2023-10-19T04:30:40;21.70;64.20
21214;DHT22;10764;50.850;2.904;2023-10-19T04:33:07;21.90;64.10
21214;DHT22;10764;50.850;2.904;2023-10-19T04:35:37;22.00;62.80
21214;DHT22;10764;50.850;2.904;2023-10-19T04:38:05;22.00;64.30
21214;DHT22;10764;50.850;2.904;2023-10-19T04:40:34;21.90;62.80
21214;DHT22;10764;50.850;2.904;2023-10-19T04:43:03;21.90;64.10
21214;DHT22;10764;50.850;2.904;2023-10-19T04:45:33;21.60;63.10
21214;DHT22;10764;50.850;2.904;2023-10-19T04:48:00;21.90;64.40
21214;DHT22;10764;50.850;2.904;2023-10-19T04:50:29;21.50;64.30
21214;DHT22;10764;50.850;2.904;2023-10-19T04:52:56;21.60;64.20
21214;DHT22;10764;50.850;2.904;2023-10-19T04:55:23;21.70;64.70
21214;DHT22;10764;50.850;2.904;2023-10-19T04:57:50;21.50;64.40
21214;DHT22;10764;50.850;2.904;2023-10-19T05:00:17;22.00;64.60
21214;DHT22;10764;50.850;2.904;2023-10-19T05:02:47;21.60;63.90
21214;DHT22;10764;50.850;2.904;2023-10-19T05:05:14;21.70;64.80
21214;DHT22;10764;50.850;2.904;2023-10-19T05:07:44;21.70;64.30
21214;DHT22;10764;50.850;2.904;2023-10-19T05:10:11;22.00;64.80
21214;DHT22;10764;50.850;2.904;2023-10-19T05:12:37;21.70;64.50
21214;DHT22;10764;50.850;2.904;2023-10-19T05:15:05;21.40;63.70
21214;DHT22;10764;50.850;2.904;2023-10-19T05:17:32;21.60;64.10
21214;DHT22;10764;50.850;2.904;2023-10-19T05:19:59;21.40;64.50
21214;DHT22;10764;50.850;2.904;2023-10-19T05:22:26;21.80;64.30
21214;DHT22;10764;50.850;2.904;2023-10-19T05:24:56;21.60;64.30
21214;DHT22;10764;50.850;2.904;2023-10-19T05:27:23;21.60;64.50
21214;DHT22;10764;50.850;2.904;2023-10-19T05:29:50;22.00;64.80
21214;DHT22;10764;50.850;2.904;2023-10-19T05:32:18;21.70;64.20
21214;DHT22;10764;50.850;2.904;2023-10-19T05:34:45;21.70;64.30
21214;DHT22;10764;50.850;2.904;2023-10-19T05:37:12;21.80;64.00
21214;DHT22;10764;50.850;2.904;2023-10-19T05:39:39;21.60;64.30
21214;DHT22;10764;50.850;2.904;2023-10-19T05:42:06;22.10;64.00
21214;DHT22;10764;50.850;2.904;2023-10-19T05:44:33;21.80;63.40
21214;DHT22;10764;50.850;2.904;2023-10-19T05:47:01;21.50;63.50
21214;DHT22;10764;50.850;2.904;2023-10-19T05:49:29;21.90;63.60
21214;DHT22;10764;50.850;2.904;2023-10-19T05:51:56;21.90;62.70
21214;DHT22;10764;50.850;2.904;2023-10-19T05:54:23;21.80;62.90
21214;DHT22;10764;50.850;2.904;2023-10-19T05:56:51;21.90;63.00
21214;DHT22;10764;50.850;2.904;2023-10-19T05:59:21;21.70;63.00
21214;DHT22;10764;50.850;2.904;2023-10-19T06:01:50;21.30;63.20
21214;DHT22;10764;50.850;2.904;2023-10-19T06:04:18;21.40;63.90
21214;DHT22;10764;50.850;2.904;2023-10-19T06:06:47;21.70;64.30
21214;DHT22;10764;50.850;2.904;2023-10-19T06:09:15;21.60;64.50
21214;DHT22;10764;50.850;2.904;2023-10-19T06:11:43;22.00;64.90
21214;DHT22;10764;50.850;2.904;2023-10-19T06:14:10;21.70;64.90
21214;DHT22;10764;50.850;2.904;2023-10-19T06:16:37;21.30;64.40
21214;DHT22;10764;50.850;2.904;2023-10-19T06:19:05;21.70;64.40
21214;DHT22;10764;50.850;2.904;2023-10-19T06:21:32;22.00;64.90
21214;DHT22;10764;50.850;2.904;2023-10-19T06:24:00;22.00;64.60
21214;DHT22;10764;50.850;2.904;2023-10-19T06:26:29;21.70;65.00
21214;DHT22;10764;50.850;2.904;2023-10-19T06:28:56;21.60;65.50
21214;DHT22;10764;50.850;2.904;2023-10-19T06:31:26;21.80;64.70
21214;DHT22;10764;50.850;2.904;2023-10-19T06:33:55;22.20;65.60
21214;DHT22;10764;50.850;2.904;2023-10-19T06:36:24;21.70;65.00
21214;DHT22;10764;50.850;2.904;2023-10-19T06:38:51;22.30;65.70
21214;DHT22;10764;50.850;2.904;2023-10-19T06:41:18;21.70;64.70
21214;DHT22;10764;50.850;2.904;2023-10-19T06:43:45;21.90;64.40
21214;DHT22;10764;50.850;2.904;2023-10-19T06:46:13;21.70;64.90
21214;DHT22;10764;50.850;2.904;2023-10-19T06:48:41;21.90;64.80
21214;DHT22;10764;50.850;2.904;2023-10-19T06:51:09;21.50;63.80
21214;DHT22;10764;50.850;2.904;2023-10-19T06:53:36;22.10;63.80
21214;DHT22;10764;50.850;2.904;2023-10-19T06:56:03;21.70;63.40
21214;DHT22;10764;50.850;2.904;2023-10-19T06:58:31;21.90;63.30
21214;DHT22;10764;50.850;2.904;2023-10-19T07:00:58;22.10;65.80
21214;DHT22;10764;50.850;2.904;2023-10-19T07:03:35;21.70;62.10
21214;DHT22;10764;50.850;2.904;2023-10-19T07:06:02;22.10;65.30
21214;DHT22;10764;50.850;2.904;2023-10-19T07:08:35;21.80;64.60
21214;DHT22;10764;50.850;2.904;2023-10-19T07:11:02;22.00;64.30
21214;DHT22;10764;50.850;2.904;2023-10-19T07:13:30;21.90;65.00
21214;DHT22;10764;50.850;2.904;2023-10-19T07:16:00;21.90;64.80
21214;DHT22;10764;50.850;2.904;2023-10-19T07:18:27;22.00;65.30
21214;DHT22;10764;50.850;2.904;2023-10-19T07:20:55;21.90;63.70
21214;DHT22;10764;50.850;2.904;2023-10-19T07:23:29;21.40;63.30
21214;DHT22;10764;50.850;2.904;2023-10-19T07:25:56;21.40;62.70
21214;DHT22;10764;50.850;2.904;2023-10-19T07:28:27;21.30;62.60
21214;DHT22;10764;50.850;2.904;2023-10-19T07:30:55;21.60;63.10
21214;DHT22;10764;50.850;2.904;2023-10-19T07:33:23;21.70;63.10
21214;DHT22;10764;50.850;2.904;2023-10-19T07:35:50;21.70;63.00
21214;DHT22;10764;50.850;2.904;2023-10-19T07:38:27;21.80;62.50
21214;DHT22;10764;50.850;2.904;2023-10-19T07:40:55;21.80;63.50
21214;DHT22;10764;50.850;2.904;2023-10-19T07:43:23;21.90;63.30
21214;DHT22;10764;50.850;2.904;2023-10-19T07:45:50;21.90;63.30
21214;DHT22;10764;50.850;2.904;2023-10-19T07:48:19;21.80;63.50
21214;DHT22;10764;50.850;2.904;2023-10-19T07:50:46;21.70;63.00
21214;DHT22;10764;50.850;2.904;2023-10-19T07:53:13;22.10;64.60
21214;DHT22;10764;50.850;2.904;2023-10-19T07:55:41;22.00;63.80
21214;DHT22;10764;50.850;2.904;2023-10-19T07:58:09;21.90;64.00
21214;DHT22;10764;50.850;2.904;2023-10-19T08:00:37;21.90;63.20
21214;DHT22;10764;50.850;2.904;2023-10-19T08:03:05;21.90;63.10
21214;DHT22;10764;50.850;2.904;2023-10-19T08:05:33;21.20;63.50
21214;DHT22;10764;50.850;2.904;2023-10-19T08:08:01;21.90;64.10
21214;DHT22;10764;50.850;2.904;2023-10-19T08:10:31;22.10;63.80
21214;DHT22;10764;50.850;2.904;2023-10-19T08:12:58;22.00;64.40
21214;DHT22;10764;50.850;2.904;2023-10-19T08:15:27;22.00;64.90
21214;DHT22;10764;50.850;2.904;2023-10-19T08:17:55;21.70;63.30
21214;DHT22;10764;50.850;2.904;2023-10-19T08:20:23;21.50;63.10
21214;DHT22;10764;50.850;2.904;2023-10-19T08:22:54;21.90;64.00
21214;DHT22;10764;50.850;2.904;2023-10-19T08:25:25;21.60;63.40
21214;DHT22;10764;50.850;2.904;2023-10-19T08:28:14;21.90;63.40
21214;DHT22;10764;50.850;2.904;2023-10-19T08:30:41;21.90;64.80
21214;DHT22;10764;50.850;2.904;2023-10-19T08:33:08;21.70;64.40
21214;DHT22;10764;50.850;2.904;2023-10-19T08:35:35;22.40;63.80
21214;DHT22;10764;50.850;2.904;2023-10-19T08:38:03;21.70;64.60
21214;DHT22;10764;50.850;2.904;2023-10-19T08:40:38;21.80;65.30
21214;DHT22;10764;50.850;2.904;2023-10-19T08:43:05;22.20;64.50
21214;DHT22;10764;50.850;2.904;2023-10-19T08:45:34;22.10;63.60
21214;DHT22;10764;50.850;2.904;2023-10-19T08:48:02;22.00;63.30
21214;DHT22;10764;50.850;2.904;2023-10-19T08:50:31;22.20;63.50
21214;DHT22;10764;50.850;2.904;2023-10-19T08:52:59;22.30;64.30
21214;DHT22;10764;50.850;2.904;2023-10-19T08:55:28;21.70;64.20
21214;DHT22;10764;50.850;2.904;2023-10-19T08:58:15;22.20;65.70
21214;DHT22;10764;50.850;2.904;2023-10-19T09:00:49;21.50;63.60
21214;DHT22;10764;50.850;2.904;2023-10-19T09:03:21;21.90;63.70
21214;DHT22;10764;50.850;2.904;2023-10-19T09:05:49;22.00;63.50
21214;DHT22;10764;50.850;2.904;2023-10-19T09:08:17;25.00;66.70
21214;DHT22;10764;50.850;2.904;2023-10-19T09:10:47;21.80;63.50
21214;DHT22;10764;50.850;2.904;2023-10-19T09:13:15;21.60;63.70
21214;DHT22;10764;50.850;2.904;2023-10-19T09:15:47;22.10;63.80
21214;DHT22;10764;50.850;2.904;2023-10-19T09:18:23;21.90;63.50
21214;DHT22;10764;50.850;2.904;2023-10-19T09:20:52;21.40;63.40
21214;DHT22;10764;50.850;2.904;2023-10-19T09:25:49;21.70;64.80
21214;DHT22;10764;50.850;2.904;2023-10-19T09:28:20;22.20;64.50
21214;DHT22;10764;50.850;2.904;2023-10-19T09:30:49;21.90;64.00
21214;DHT22;10764;50.850;2.904;2023-10-19T09:33:17;21.70;64.70
21214;DHT22;10764;50.850;2.904;2023-10-19T09:35:46;21.90;65.20
21214;DHT22;10764;50.850;2.904;2023-10-19T09:38:20;22.20;64.00
21214;DHT22;10764;50.850;2.904;2023-10-19T09:40:54;22.00;64.70
21214;DHT22;10764;50.850;2.904;2023-10-19T09:43:34;21.40;63.60
21214;DHT22;10764;50.850;2.904;2023-10-19T09:46:09;21.90;62.00
21214;DHT22;10764;50.850;2.904;2023-10-19T09:48:42;22.00;64.00
21214;DHT22;10764;50.850;2.904;2023-10-19T09:51:12;22.00;64.10
21214;DHT22;10764;50.850;2.904;2023-10-19T09:53:47;22.00;64.00
21214;DHT22;10764;50.850;2.904;2023-10-19T09:56:26;21.90;64.20
21214;DHT22;10764;50.850;2.904;2023-10-19T09:58:57;22.30;64.20
21214;DHT22;10764;50.850;2.904;2023-10-19T10:01:27;21.80;64.00
21214;DHT22;10764;50.850;2.904;2023-10-19T10:03:55;21.90;64.50
21214;DHT22;10764;50.850;2.904;2023-10-19T10:09:20;22.30;62.70
21214;DHT22;10764;50.850;2.904;2023-10-19T10:11:54;21.90;65.10
21214;DHT22;10764;50.850;2.904;2023-10-19T10:14:23;21.70;62.40
21214;DHT22;10764;50.850;2.904;2023-10-19T10:17:01;22.10;64.40
21214;DHT22;10764;50.850;2.904;2023-10-19T10:19:29;22.10;64.50
21214;DHT22;10764;50.850;2.904;2023-10-19T10:22:11;21.90;64.50
21214;DHT22;10764;50.850;2.904;2023-10-19T10:24:41;21.60;62.50
21214;DHT22;10764;50.850;2.904;2023-10-19T10:27:09;22.20;65.00
21214;DHT22;10764;50.850;2.904;2023-10-19T10:29:37;22.40;65.60
21214;DHT22;10764;50.850;2.904;2023-10-19T10:32:51;21.70;64.60
21214;DHT22;10764;50.850;2.904;2023-10-19T10:38:09;21.80;63.10
21214;DHT22;10764;50.850;2.904;2023-10-19T10:40:42;22.00;64.90
21214;DHT22;10764;50.850;2.904;2023-10-19T10:43:09;21.70;64.70
21214;DHT22;10764;50.850;2.904;2023-10-19T10:45:40;22.20;64.40
21214;DHT22;10764;50.850;2.904;2023-10-19T10:48:17;22.00;65.10
21214;DHT22;10764;50.850;2.904;2023-10-19T10:50:47;21.70;65.10
21214;DHT22;10764;50.850;2.904;2023-10-19T10:53:15;22.00;65.30
21214;DHT22;10764;50.850;2.904;2023-10-19T10:55:42;22.00;67.00
21214;DHT22;10764;50.850;2.904;2023-10-19T10:58:14;22.00;65.30
21214;DHT22;10764;50.850;2.904;2023-10-19T11:00:45;21.80;65.60
21214;DHT22;10764;50.850;2.904;2023-10-19T11:03:16;21.90;65.50
21214;DHT22;10764;50.850;2.904;2023-10-19T11:05:43;22.00;65.60
21214;DHT22;10764;50.850;2.904;2023-10-19T11:08:14;21.70;65.50
21214;DHT22;10764;50.850;2.904;2023-10-19T11:10:44;22.00;65.70
21214;DHT22;10764;50.850;2.904;2023-10-19T11:13:18;22.30;66.10
21214;DHT22;10764;50.850;2.904;2023-10-19T11:15:53;21.80;65.80
21214;DHT22;10764;50.850;2.904;2023-10-19T11:21:06;21.70;66.10
21214;DHT22;10764;50.850;2.904;2023-10-19T11:23:46;22.10;66.30
21214;DHT22;10764;50.850;2.904;2023-10-19T11:26:16;22.30;66.30
21214;DHT22;10764;50.850;2.904;2023-10-19T11:28:43;22.00;67.10
21214;DHT22;10764;50.850;2.904;2023-10-19T11:31:22;21.70;65.00
21214;DHT22;10764;50.850;2.904;2023-10-19T11:33:50;21.90;66.30
21214;DHT22;10764;50.850;2.904;2023-10-19T11:36:18;22.20;66.40
21214;DHT22;10764;50.850;2.904;2023-10-19T11:38:48;22.00;66.50
21214;DHT22;10764;50.850;2.904;2023-10-19T11:41:15;21.90;66.40
21214;DHT22;10764;50.850;2.904;2023-10-19T11:43:45;22.10;66.30
21214;DHT22;10764;50.850;2.904;2023-10-19T11:46:12;21.90;66.40
21214;DHT22;10764;50.850;2.904;2023-10-19T11:48:41;21.70;66.30
21214;DHT22;10764;50.850;2.904;2023-10-19T11:51:11;22.10;65.20
21214;DHT22;10764;50.850;2.904;2023-10-19T11:53:38;21.90;66.30
21214;DHT22;10764;50.850;2.904;2023-10-19T11:56:07;21.70;66.00
21214;DHT22;10764;50.850;2.904;2023-10-19T11:58:35;22.40;66.20
21214;DHT22;10764;50.850;2.904;2023-10-19T12:01:04;21.60;66.10
21214;DHT22;10764;50.850;2.904;2023-10-19T12:03:35;22.20;66.50
21214;DHT22;10764;50.850;2.904;2023-10-19T12:06:04;21.90;66.40
21214;DHT22;10764;50.850;2.904;2023-10-19T12:08:34;22.20;66.60
21214;DHT22;10764;50.850;2.904;2023-10-19T12:11:01;21.70;65.80
21214;DHT22;10764;50.850;2.904;2023-10-19T12:13:30;22.00;66.20
21214;DHT22;10764;50.850;2.904;2023-10-19T12:16:00;22.30;66.60
21214;DHT22;10764;50.850;2.904;2023-10-19T12:18:31;22.00;66.50
21214;DHT22;10764;50.850;2.904;2023-10-19T12:20:58;22.00;66.60
21214;DHT22;10764;50.850;2.904;2023-10-19T12:23:26;22.30;66.60
21214;DHT22;10764;50.850;2.904;2023-10-19T12:25:53;21.80;66.40
21214;DHT22;10764;50.850;2.904;2023-10-19T12:28:24;22.50;66.90
21214;DHT22;10764;50.850;2.904;2023-10-19T12:30:52;21.90;66.50
21214;DHT22;10764;50.850;2.904;2023-10-19T12:33:19;22.10;66.30
21214;DHT22;10764;50.850;2.904;2023-10-19T12:35:47;21.80;66.40
21214;DHT22;10764;50.850;2.904;2023-10-19T12:38:26;22.10;64.90
21214;DHT22;10764;50.850;2.904;2023-10-19T12:40:54;22.00;66.20
21214;DHT22;10764;50.850;2.904;2023-10-19T12:43:21;21.60;66.00
21214;DHT22;10764;50.850;2.904;2023-10-19T12:45:52;22.40;64.70
21214;DHT22;10764;50.850;2.904;2023-10-19T12:48:24;22.10;64.60
21214;DHT22;10764;50.850;2.904;2023-10-19T12:50:57;21.90;66.30
21214;DHT22;10764;50.850;2.904;2023-10-19T12:53:23;21.50;65.60
21214;DHT22;10764;50.850;2.904;2023-10-19T12:55:51;22.10;66.00
21214;DHT22;10764;50.850;2.904;2023-10-19T12:58:19;22.20;65.90
21214;DHT22;10764;50.850;2.904;2023-10-19T13:00:47;22.60;66.40
21214;DHT22;10764;50.850;2.904;2023-10-19T13:03:17;22.00;67.40
21214;DHT22;10764;50.850;2.904;2023-10-19T13:05:45;22.00;66.00
21214;DHT22;10764;50.850;2.904;2023-10-19T13:08:14;21.90;67.50
21214;DHT22;10764;50.850;2.904;2023-10-19T13:10:43;22.40;67.50
21214;DHT22;10764;50.850;2.904;2023-10-19T13:13:13;22.10;66.60
21214;DHT22;10764;50.850;2.904;2023-10-19T13:15:44;22.10;67.00
21214;DHT22;10764;50.850;2.904;2023-10-19T13:18:12;22.80;67.40
21214;DHT22;10764;50.850;2.904;2023-10-19T13:20:40;22.10;67.00
21214;DHT22;10764;50.850;2.904;2023-10-19T13:23:11;22.60;65.50
21214;DHT22;10764;50.850;2.904;2023-10-19T13:25:44;22.00;65.60
21214;DHT22;10764;50.850;2.904;2023-10-19T13:28:18;22.20;65.40
21214;DHT22;10764;50.850;2.904;2023-10-19T13:30:50;21.80;66.40
21214;DHT22;10764;50.850;2.904;2023-10-19T13:33:18;22.60;65.20
21214;DHT22;10764;50.850;2.904;2023-10-19T13:35:45;22.20;68.40
21214;DHT22;10764;50.850;2.904;2023-10-19T13:38:13;22.00;67.20
21214;DHT22;10764;50.850;2.904;2023-10-19T13:40:44;22.00;66.30
21214;DHT22;10764;50.850;2.904;2023-10-19T13:43:13;22.20;66.60
21214;DHT22;10764;50.850;2.904;2023-10-19T13:45:47;22.40;67.00
21214;DHT22;10764;50.850;2.904;2023-10-19T13:48:15;22.10;66.80
21214;DHT22;10764;50.850;2.904;2023-10-19T13:50:46;22.60;66.60
21214;DHT22;10764;50.850;2.904;2023-10-19T13:53:16;21.90;64.00
21214;DHT22;10764;50.850;2.904;2023-10-19T13:55:44;22.40;66.60
21214;DHT22;10764;50.850;2.904;2023-10-19T13:58:12;22.60;66.50
21214;DHT22;10764;50.850;2.904;2023-10-19T14:00:42;21.90;66.30
21214;DHT22;10764;50.850;2.904;2023-10-19T14:03:11;22.50;67.50
21214;DHT22;10764;50.850;2.904;2023-10-19T14:05:45;22.50;67.90
21214;DHT22;10764;50.850;2.904;2023-10-19T14:08:17;22.30;66.60
21214;DHT22;10764;50.850;2.904;2023-10-19T14:10:44;22.30;66.70
21214;DHT22;10764;50.850;2.904;2023-10-19T14:13:12;21.90;67.10
21214;DHT22;10764;50.850;2.904;2023-10-19T14:15:39;22.30;67.70
21214;DHT22;10764;50.850;2.904;2023-10-19T14:18:06;22.30;68.60
21214;DHT22;10764;50.850;2.904;2023-10-19T14:20:34;22.90;68.50
21214;DHT22;10764;50.850;2.904;2023-10-19T14:23:02;22.20;67.60
21214;DHT22;10764;50.850;2.904;2023-10-19T14:25:35;22.50;66.90
21214;DHT22;10764;50.850;2.904;2023-10-19T14:28:03;22.30;66.40
21214;DHT22;10764;50.850;2.904;2023-10-19T14:30:33;22.50;66.50
21214;DHT22;10764;50.850;2.904;2023-10-19T14:33:00;22.20;66.20
21214;DHT22;10764;50.850;2.904;2023-10-19T14:35:28;22.30;67.70
21214;DHT22;10764;50.850;2.904;2023-10-19T14:37:56;21.90;66.90
21214;DHT22;10764;50.850;2.904;2023-10-19T14:40:27;22.30;65.90
21214;DHT22;10764;50.850;2.904;2023-10-19T14:42:56;21.90;65.30
21214;DHT22;10764;50.850;2.904;2023-10-19T14:45:25;22.60;65.70
21214;DHT22;10764;50.850;2.904;2023-10-19T14:47:54;22.50;65.50
21214;DHT22;10764;50.850;2.904;2023-10-19T14:50:31;22.20;65.40
21214;DHT22;10764;50.850;2.904;2023-10-19T14:52:58;22.00;65.40
21214;DHT22;10764;50.850;2.904;2023-10-19T14:55:26;22.30;65.30
21214;DHT22;10764;50.850;2.904;2023-10-19T14:57:54;22.40;65.20
21214;DHT22;10764;50.850;2.904;2023-10-19T15:00:23;22.40;66.10
21214;DHT22;10764;50.850;2.904;2023-10-19T15:03:09;22.30;65.70
21214;DHT22;10764;50.850;2.904;2023-10-19T15:05:37;22.40;65.30
21214;DHT22;10764;50.850;2.904;2023-10-19T15:08:05;22.20;65.40
21214;DHT22;10764;50.850;2.904;2023-10-19T15:10:34;22.30;64.80
21214;DHT22;10764;50.850;2.904;2023-10-19T15:13:01;22.20;65.30
21214;DHT22;10764;50.850;2.904;2023-10-19T15:15:29;21.90;64.90
21214;DHT22;10764;50.850;2.904;2023-10-19T15:17:56;22.30;65.00
21214;DHT22;10764;50.850;2.904;2023-10-19T15:20:26;22.40;65.10
21214;DHT22;10764;50.850;2.904;2023-10-19T15:22:54;22.60;64.70
21214;DHT22;10764;50.850;2.904;2023-10-19T15:25:22;22.20;64.70
21214;DHT22;10764;50.850;2.904;2023-10-19T15:27:52;21.90;65.60
21214;DHT22;10764;50.850;2.904;2023-10-19T15:30:20;22.40;64.70
21214;DHT22;10764;50.850;2.904;2023-10-19T15:32:48;22.10;64.50
21214;DHT22;10764;50.850;2.904;2023-10-19T15:35:17;22.40;65.00
21214;DHT22;10764;50.850;2.904;2023-10-19T15:37:50;22.00;63.80
21214;DHT22;10764;50.850;2.904;2023-10-19T15:40:21;22.40;64.40
21214;DHT22;10764;50.850;2.904;2023-10-19T15:42:49;22.40;65.20
21214;DHT22;10764;50.850;2.904;2023-10-19T15:45:16;22.30;65.00
21214;DHT22;10764;50.850;2.904;2023-10-19T15:47:46;22.30;62.90
21214;DHT22;10764;50.850;2.904;2023-10-19T15:50:14;22.60;65.30
21214;DHT22;10764;50.850;2.904;2023-10-19T15:52:41;22.10;64.80
21214;DHT22;10764;50.850;2.904;2023-10-19T15:55:12;22.60;63.30
21214;DHT22;10764;50.850;2.904;2023-10-19T15:57:41;22.50;64.80
21214;DHT22;10764;50.850;2.904;2023-10-19T16:00:10;22.10;64.60
21214;DHT22;10764;50.850;2.904;2023-10-19T16:02:41;22.10;64.00